sensor_id;sensor_type;location;lat;lon;timestamp;P1;durP1;ratioP1;P2;durP2;ratioP2
40162;SDS011;25881;47.462;19.304;2023-06-14T00:00:57;6.72;;;2.95;;
40162;SDS011;25881;47.462;19.304;2023-06-14T00:03:23;7.37;;;3.57;;
40162;SDS011;25881;47.462;19.304;2023-06-14T00:05:49;5.95;;;3.38;;
40162;SDS011;25881;47.462;19.304;2023-06-14T00:08:15;5.53;;;2.80;;
40162;SDS011;25881;47.462;19.304;2023-06-14T00:10:40;6.18;;;3.53;;
40162;SDS011;25881;47.462;19.304;2023-06-14T00:13:07;6.70;;;3.58;;
40162;SDS011;25881;47.462;19.304;2023-06-14T00:15:32;7.78;;;3.85;;
40162;SDS011;25881;47.462;19.304;2023-06-14T00:17:58;8.97;;;3.87;;
40162;SDS011;25881;47.462;19.304;2023-06-14T00:20:29;8.15;;;3.65;;
40162;SDS011;25881;47.462;19.304;2023-06-14T00:23:01;10.20;;;4.72;;
40162;SDS011;25881;47.462;19.304;2023-06-14T00:27:52;7.93;;;3.83;;
40162;SDS011;25881;47.462;19.304;2023-06-14T00:30:17;7.75;;;3.30;;
40162;SDS011;25881;47.462;19.304;2023-06-14T00:32:43;8.32;;;3.80;;
40162;SDS011;25881;47.462;19.304;2023-06-14T00:35:08;7.25;;;3.40;;
40162;SDS011;25881;47.462;19.304;2023-06-14T00:37:34;11.30;;;4.43;;
40162;SDS011;25881;47.462;19.304;2023-06-14T00:40:00;9.98;;;4.32;;
40162;SDS011;25881;47.462;19.304;2023-06-14T00:42:28;7.83;;;4.27;;
40162;SDS011;25881;47.462;19.304;2023-06-14T00:47:19;7.43;;;3.70;;
40162;SDS011;25881;47.462;19.304;2023-06-14T00:49:48;11.05;;;4.45;;
40162;SDS011;25881;47.462;19.304;2023-06-14T00:52:13;13.43;;;5.38;;
40162;SDS011;25881;47.462;19.304;2023-06-14T00:54:39;9.15;;;4.47;;
40162;SDS011;25881;47.462;19.304;2023-06-14T00:57:05;9.65;;;4.68;;
40162;SDS011;25881;47.462;19.304;2023-06-14T00:59:31;10.10;;;4.88;;
40162;SDS011;25881;47.462;19.304;2023-06-14T01:01:56;11.90;;;4.38;;
40162;SDS011;25881;47.462;19.304;2023-06-14T01:04:21;10.98;;;5.05;;
40162;SDS011;25881;47.462;19.304;2023-06-14T01:06:56;9.80;;;4.70;;
40162;SDS011;25881;47.462;19.304;2023-06-14T01:09:47;10.95;;;5.47;;
40162;SDS011;25881;47.462;19.304;2023-06-14T01:14:53;7.38;;;3.95;;
40162;SDS011;25881;47.462;19.304;2023-06-14T01:17:19;8.35;;;4.35;;
40162;SDS011;25881;47.462;19.304;2023-06-14T01:19:44;9.25;;;4.43;;
40162;SDS011;25881;47.462;19.304;2023-06-14T01:22:10;8.60;;;3.95;;
40162;SDS011;25881;47.462;19.304;2023-06-14T01:24:36;10.05;;;4.20;;
40162;SDS011;25881;47.462;19.304;2023-06-14T01:27:01;8.48;;;4.25;;
40162;SDS011;25881;47.462;19.304;2023-06-14T01:29:27;9.00;;;4.20;;
40162;SDS011;25881;47.462;19.304;2023-06-14T01:31:57;10.68;;;4.30;;
40162;SDS011;25881;47.462;19.304;2023-06-14T01:34:23;8.80;;;4.15;;
40162;SDS011;25881;47.462;19.304;2023-06-14T01:36:48;12.83;;;4.20;;
40162;SDS011;25881;47.462;19.304;2023-06-14T01:39:14;9.57;;;4.45;;
40162;SDS011;25881;47.462;19.304;2023-06-14T01:41:40;8.68;;;3.97;;
40162;SDS011;25881;47.462;19.304;2023-06-14T01:44:06;12.68;;;5.35;;
40162;SDS011;25881;47.462;19.304;2023-06-14T01:46:31;9.98;;;4.60;;
40162;SDS011;25881;47.462;19.304;2023-06-14T01:48:56;9.33;;;4.37;;
40162;SDS011;25881;47.462;19.304;2023-06-14T01:51:22;10.57;;;4.47;;
40162;SDS011;25881;47.462;19.304;2023-06-14T01:53:47;9.80;;;4.20;;
40162;SDS011;25881;47.462;19.304;2023-06-14T01:56:13;9.50;;;3.88;;
40162;SDS011;25881;47.462;19.304;2023-06-14T01:58:38;8.55;;;4.32;;
40162;SDS011;25881;47.462;19.304;2023-06-14T02:01:04;8.32;;;3.97;;
40162;SDS011;25881;47.462;19.304;2023-06-14T02:03:30;9.55;;;4.47;;
40162;SDS011;25881;47.462;19.304;2023-06-14T02:05:55;10.20;;;3.97;;
40162;SDS011;25881;47.462;19.304;2023-06-14T02:08:20;9.90;;;4.00;;
40162;SDS011;25881;47.462;19.304;2023-06-14T02:10:45;9.23;;;4.27;;
40162;SDS011;25881;47.462;19.304;2023-06-14T02:13:11;8.13;;;3.92;;
40162;SDS011;25881;47.462;19.304;2023-06-14T02:15:37;7.70;;;3.50;;
40162;SDS011;25881;47.462;19.304;2023-06-14T02:18:02;9.52;;;3.95;;
40162;SDS011;25881;47.462;19.304;2023-06-14T02:20:28;10.00;;;4.50;;
40162;SDS011;25881;47.462;19.304;2023-06-14T02:22:53;9.25;;;4.22;;
40162;SDS011;25881;47.462;19.304;2023-06-14T02:25:19;8.80;;;4.40;;
40162;SDS011;25881;47.462;19.304;2023-06-14T02:27:44;7.27;;;3.70;;
40162;SDS011;25881;47.462;19.304;2023-06-14T02:30:10;9.23;;;4.32;;
40162;SDS011;25881;47.462;19.304;2023-06-14T02:32:35;7.82;;;3.78;;
40162;SDS011;25881;47.462;19.304;2023-06-14T02:35:01;10.57;;;4.57;;
40162;SDS011;25881;47.462;19.304;2023-06-14T02:37:26;9.20;;;4.50;;
40162;SDS011;25881;47.462;19.304;2023-06-14T02:39:51;8.63;;;3.80;;
40162;SDS011;25881;47.462;19.304;2023-06-14T02:42:16;8.60;;;4.00;;
40162;SDS011;25881;47.462;19.304;2023-06-14T02:44:42;9.60;;;5.13;;
40162;SDS011;25881;47.462;19.304;2023-06-14T02:47:08;7.53;;;3.85;;
40162;SDS011;25881;47.462;19.304;2023-06-14T02:49:33;8.35;;;4.07;;
40162;SDS011;25881;47.462;19.304;2023-06-14T02:51:59;9.73;;;4.32;;
40162;SDS011;25881;47.462;19.304;2023-06-14T02:54:24;8.07;;;3.65;;
40162;SDS011;25881;47.462;19.304;2023-06-14T02:56:50;8.40;;;3.65;;
40162;SDS011;25881;47.462;19.304;2023-06-14T02:59:15;7.88;;;4.03;;
40162;SDS011;25881;47.462;19.304;2023-06-14T03:01:42;9.18;;;3.70;;
40162;SDS011;25881;47.462;19.304;2023-06-14T03:04:07;6.95;;;3.30;;
40162;SDS011;25881;47.462;19.304;2023-06-14T03:06:33;9.30;;;3.75;;
40162;SDS011;25881;47.462;19.304;2023-06-14T03:08:58;10.57;;;4.30;;
40162;SDS011;25881;47.462;19.304;2023-06-14T03:11:29;6.60;;;2.88;;
40162;SDS011;25881;47.462;19.304;2023-06-14T03:13:54;7.50;;;3.80;;
40162;SDS011;25881;47.462;19.304;2023-06-14T03:16:21;7.18;;;3.50;;
40162;SDS011;25881;47.462;19.304;2023-06-14T03:18:49;8.93;;;3.70;;
40162;SDS011;25881;47.462;19.304;2023-06-14T03:21:14;7.18;;;3.53;;
40162;SDS011;25881;47.462;19.304;2023-06-14T03:23:41;8.65;;;3.83;;
40162;SDS011;25881;47.462;19.304;2023-06-14T03:26:06;7.97;;;3.78;;
40162;SDS011;25881;47.462;19.304;2023-06-14T03:28:31;10.00;;;4.20;;
40162;SDS011;25881;47.462;19.304;2023-06-14T03:30:57;9.67;;;3.57;;
40162;SDS011;25881;47.462;19.304;2023-06-14T03:33:22;8.57;;;4.13;;
40162;SDS011;25881;47.462;19.304;2023-06-14T03:35:47;9.27;;;3.63;;
40162;SDS011;25881;47.462;19.304;2023-06-14T03:38:12;6.65;;;3.47;;
40162;SDS011;25881;47.462;19.304;2023-06-14T03:40:38;7.50;;;3.37;;
40162;SDS011;25881;47.462;19.304;2023-06-14T03:43:03;7.87;;;3.37;;
40162;SDS011;25881;47.462;19.304;2023-06-14T03:45:28;8.63;;;3.80;;
40162;SDS011;25881;47.462;19.304;2023-06-14T03:47:53;9.13;;;3.73;;
40162;SDS011;25881;47.462;19.304;2023-06-14T03:50:19;9.38;;;4.15;;
40162;SDS011;25881;47.462;19.304;2023-06-14T03:52:45;8.40;;;3.70;;
40162;SDS011;25881;47.462;19.304;2023-06-14T03:55:10;9.17;;;3.53;;
40162;SDS011;25881;47.462;19.304;2023-06-14T03:57:38;7.10;;;3.35;;
40162;SDS011;25881;47.462;19.304;2023-06-14T04:00:03;8.23;;;3.57;;
40162;SDS011;25881;47.462;19.304;2023-06-14T04:02:30;8.27;;;3.83;;
40162;SDS011;25881;47.462;19.304;2023-06-14T04:04:56;7.40;;;3.57;;
40162;SDS011;25881;47.462;19.304;2023-06-14T04:07:21;8.40;;;3.87;;
40162;SDS011;25881;47.462;19.304;2023-06-14T04:09:46;7.53;;;3.70;;
40162;SDS011;25881;47.462;19.304;2023-06-14T04:12:12;9.02;;;3.92;;
40162;SDS011;25881;47.462;19.304;2023-06-14T04:14:38;7.13;;;3.85;;
40162;SDS011;25881;47.462;19.304;2023-06-14T04:17:03;9.30;;;3.97;;
40162;SDS011;25881;47.462;19.304;2023-06-14T04:19:29;10.82;;;4.05;;
40162;SDS011;25881;47.462;19.304;2023-06-14T04:21:54;10.30;;;3.75;;
40162;SDS011;25881;47.462;19.304;2023-06-14T04:24:20;7.07;;;3.78;;
40162;SDS011;25881;47.462;19.304;2023-06-14T04:26:45;11.70;;;4.17;;
40162;SDS011;25881;47.462;19.304;2023-06-14T04:29:13;7.90;;;3.80;;
40162;SDS011;25881;47.462;19.304;2023-06-14T04:31:42;8.27;;;3.90;;
40162;SDS011;25881;47.462;19.304;2023-06-14T04:34:07;10.05;;;4.07;;
40162;SDS011;25881;47.462;19.304;2023-06-14T04:36:33;9.43;;;3.85;;
40162;SDS011;25881;47.462;19.304;2023-06-14T04:39:00;9.50;;;4.10;;
40162;SDS011;25881;47.462;19.304;2023-06-14T04:41:25;7.88;;;3.83;;
40162;SDS011;25881;47.462;19.304;2023-06-14T04:43:56;9.73;;;3.90;;
40162;SDS011;25881;47.462;19.304;2023-06-14T04:46:22;7.80;;;3.78;;
40162;SDS011;25881;47.462;19.304;2023-06-14T04:48:47;8.43;;;3.50;;
40162;SDS011;25881;47.462;19.304;2023-06-14T04:51:12;9.15;;;3.75;;
40162;SDS011;25881;47.462;19.304;2023-06-14T04:53:38;11.10;;;4.23;;
40162;SDS011;25881;47.462;19.304;2023-06-14T04:56:03;8.33;;;3.60;;
40162;SDS011;25881;47.462;19.304;2023-06-14T04:58:29;8.30;;;3.80;;
40162;SDS011;25881;47.462;19.304;2023-06-14T05:00:54;8.27;;;3.30;;
40162;SDS011;25881;47.462;19.304;2023-06-14T05:03:21;9.52;;;3.78;;
40162;SDS011;25881;47.462;19.304;2023-06-14T05:05:46;10.52;;;3.58;;
40162;SDS011;25881;47.462;19.304;2023-06-14T05:08:11;7.23;;;3.30;;
40162;SDS011;25881;47.462;19.304;2023-06-14T05:10:36;7.13;;;3.70;;
40162;SDS011;25881;47.462;19.304;2023-06-14T05:13:02;8.18;;;3.50;;
40162;SDS011;25881;47.462;19.304;2023-06-14T05:15:27;7.70;;;3.50;;
40162;SDS011;25881;47.462;19.304;2023-06-14T05:17:54;7.90;;;3.42;;
40162;SDS011;25881;47.462;19.304;2023-06-14T05:20:23;10.20;;;3.60;;
40162;SDS011;25881;47.462;19.304;2023-06-14T05:22:54;7.65;;;3.13;;
40162;SDS011;25881;47.462;19.304;2023-06-14T05:27:45;8.77;;;3.53;;
40162;SDS011;25881;47.462;19.304;2023-06-14T05:30:11;8.23;;;4.03;;
40162;SDS011;25881;47.462;19.304;2023-06-14T05:32:36;11.18;;;4.10;;
40162;SDS011;25881;47.462;19.304;2023-06-14T05:35:02;7.97;;;3.72;;
40162;SDS011;25881;47.462;19.304;2023-06-14T05:37:27;9.52;;;3.20;;
40162;SDS011;25881;47.462;19.304;2023-06-14T05:39:52;8.67;;;3.20;;
40162;SDS011;25881;47.462;19.304;2023-06-14T05:42:17;9.17;;;4.10;;
40162;SDS011;25881;47.462;19.304;2023-06-14T05:44:43;9.57;;;3.43;;
40162;SDS011;25881;47.462;19.304;2023-06-14T05:47:08;7.03;;;3.88;;
40162;SDS011;25881;47.462;19.304;2023-06-14T05:49:33;6.28;;;3.17;;
40162;SDS011;25881;47.462;19.304;2023-06-14T05:51:58;5.43;;;3.00;;
40162;SDS011;25881;47.462;19.304;2023-06-14T05:54:24;7.10;;;3.33;;
40162;SDS011;25881;47.462;19.304;2023-06-14T05:56:49;8.40;;;3.85;;
40162;SDS011;25881;47.462;19.304;2023-06-14T05:59:14;7.23;;;3.70;;
40162;SDS011;25881;47.462;19.304;2023-06-14T06:01:39;8.17;;;3.60;;
40162;SDS011;25881;47.462;19.304;2023-06-14T06:04:07;6.80;;;3.58;;
40162;SDS011;25881;47.462;19.304;2023-06-14T06:06:32;6.17;;;3.17;;
40162;SDS011;25881;47.462;19.304;2023-06-14T06:08:57;6.90;;;3.33;;
40162;SDS011;25881;47.462;19.304;2023-06-14T06:11:23;7.78;;;3.45;;
40162;SDS011;25881;47.462;19.304;2023-06-14T06:13:48;8.00;;;3.57;;
40162;SDS011;25881;47.462;19.304;2023-06-14T06:16:13;5.60;;;3.05;;
40162;SDS011;25881;47.462;19.304;2023-06-14T06:18:38;6.40;;;3.13;;
40162;SDS011;25881;47.462;19.304;2023-06-14T06:21:04;11.77;;;3.37;;
40162;SDS011;25881;47.462;19.304;2023-06-14T06:23:29;9.43;;;3.80;;
40162;SDS011;25881;47.462;19.304;2023-06-14T06:25:54;8.43;;;2.83;;
40162;SDS011;25881;47.462;19.304;2023-06-14T06:28:20;6.90;;;3.22;;
40162;SDS011;25881;47.462;19.304;2023-06-14T06:30:45;9.23;;;3.53;;
40162;SDS011;25881;47.462;19.304;2023-06-14T06:33:10;6.78;;;3.63;;
40162;SDS011;25881;47.462;19.304;2023-06-14T06:35:36;8.30;;;3.97;;
40162;SDS011;25881;47.462;19.304;2023-06-14T06:38:02;6.68;;;3.22;;
40162;SDS011;25881;47.462;19.304;2023-06-14T06:40:27;9.37;;;3.57;;
40162;SDS011;25881;47.462;19.304;2023-06-14T06:42:52;8.00;;;2.63;;
40162;SDS011;25881;47.462;19.304;2023-06-14T06:45:18;8.45;;;3.50;;
40162;SDS011;25881;47.462;19.304;2023-06-14T06:47:43;7.03;;;3.30;;
40162;SDS011;25881;47.462;19.304;2023-06-14T06:50:08;7.70;;;3.70;;
40162;SDS011;25881;47.462;19.304;2023-06-14T06:52:34;7.85;;;3.55;;
40162;SDS011;25881;47.462;19.304;2023-06-14T06:55:00;7.80;;;3.33;;
40162;SDS011;25881;47.462;19.304;2023-06-14T06:57:25;6.80;;;3.20;;
40162;SDS011;25881;47.462;19.304;2023-06-14T06:59:50;5.73;;;3.23;;
40162;SDS011;25881;47.462;19.304;2023-06-14T07:02:16;6.47;;;3.00;;
40162;SDS011;25881;47.462;19.304;2023-06-14T07:04:41;5.30;;;2.95;;
40162;SDS011;25881;47.462;19.304;2023-06-14T07:07:06;9.68;;;4.32;;
40162;SDS011;25881;47.462;19.304;2023-06-14T07:09:32;6.60;;;3.13;;
40162;SDS011;25881;47.462;19.304;2023-06-14T07:11:57;5.35;;;2.60;;
40162;SDS011;25881;47.462;19.304;2023-06-14T07:14:22;5.03;;;2.87;;
40162;SDS011;25881;47.462;19.304;2023-06-14T07:16:48;6.50;;;3.00;;
40162;SDS011;25881;47.462;19.304;2023-06-14T07:19:14;5.95;;;2.65;;
40162;SDS011;25881;47.462;19.304;2023-06-14T07:21:39;6.85;;;2.78;;
40162;SDS011;25881;47.462;19.304;2023-06-14T07:24:05;6.53;;;2.93;;
40162;SDS011;25881;47.462;19.304;2023-06-14T07:26:31;5.80;;;3.22;;
40162;SDS011;25881;47.462;19.304;2023-06-14T07:28:56;6.17;;;2.93;;
40162;SDS011;25881;47.462;19.304;2023-06-14T07:31:22;7.87;;;3.33;;
40162;SDS011;25881;47.462;19.304;2023-06-14T07:33:47;6.50;;;2.93;;
40162;SDS011;25881;47.462;19.304;2023-06-14T07:36:12;5.40;;;3.03;;
40162;SDS011;25881;47.462;19.304;2023-06-14T07:38:37;5.07;;;2.77;;
40162;SDS011;25881;47.462;19.304;2023-06-14T07:41:03;4.80;;;2.85;;
40162;SDS011;25881;47.462;19.304;2023-06-14T07:43:28;5.05;;;2.95;;
40162;SDS011;25881;47.462;19.304;2023-06-14T07:45:54;6.55;;;3.63;;
40162;SDS011;25881;47.462;19.304;2023-06-14T07:48:20;5.90;;;2.95;;
40162;SDS011;25881;47.462;19.304;2023-06-14T07:50:45;4.27;;;2.20;;
40162;SDS011;25881;47.462;19.304;2023-06-14T07:53:10;7.80;;;2.53;;
40162;SDS011;25881;47.462;19.304;2023-06-14T07:55:35;4.33;;;2.40;;
40162;SDS011;25881;47.462;19.304;2023-06-14T07:58:06;5.57;;;2.53;;
40162;SDS011;25881;47.462;19.304;2023-06-14T08:00:31;7.32;;;3.10;;
40162;SDS011;25881;47.462;19.304;2023-06-14T08:02:57;9.73;;;3.25;;
40162;SDS011;25881;47.462;19.304;2023-06-14T08:05:23;4.25;;;2.38;;
40162;SDS011;25881;47.462;19.304;2023-06-14T08:07:49;8.15;;;2.58;;
40162;SDS011;25881;47.462;19.304;2023-06-14T08:10:14;6.70;;;2.60;;
40162;SDS011;25881;47.462;19.304;2023-06-14T08:12:39;6.70;;;2.65;;
40162;SDS011;25881;47.462;19.304;2023-06-14T08:15:05;6.83;;;2.60;;
40162;SDS011;25881;47.462;19.304;2023-06-14T08:17:30;8.93;;;3.30;;
40162;SDS011;25881;47.462;19.304;2023-06-14T08:19:55;5.03;;;2.27;;
40162;SDS011;25881;47.462;19.304;2023-06-14T08:22:22;8.35;;;3.33;;
40162;SDS011;25881;47.462;19.304;2023-06-14T08:24:47;6.43;;;2.67;;
40162;SDS011;25881;47.462;19.304;2023-06-14T08:27:12;5.15;;;2.70;;
40162;SDS011;25881;47.462;19.304;2023-06-14T08:29:38;5.72;;;3.00;;
40162;SDS011;25881;47.462;19.304;2023-06-14T08:32:05;7.07;;;2.80;;
40162;SDS011;25881;47.462;19.304;2023-06-14T08:34:30;5.68;;;2.90;;
40162;SDS011;25881;47.462;19.304;2023-06-14T08:36:56;7.05;;;3.10;;
40162;SDS011;25881;47.462;19.304;2023-06-14T08:39:21;8.73;;;3.03;;
40162;SDS011;25881;47.462;19.304;2023-06-14T08:41:47;5.60;;;3.05;;
40162;SDS011;25881;47.462;19.304;2023-06-14T08:44:18;5.22;;;2.75;;
40162;SDS011;25881;47.462;19.304;2023-06-14T08:46:44;7.70;;;3.08;;
40162;SDS011;25881;47.462;19.304;2023-06-14T08:49:13;6.55;;;2.80;;
40162;SDS011;25881;47.462;19.304;2023-06-14T08:51:41;9.25;;;3.28;;
40162;SDS011;25881;47.462;19.304;2023-06-14T08:54:08;7.38;;;2.72;;
40162;SDS011;25881;47.462;19.304;2023-06-14T08:56:34;6.28;;;2.60;;
40162;SDS011;25881;47.462;19.304;2023-06-14T08:59:02;4.90;;;2.13;;
40162;SDS011;25881;47.462;19.304;2023-06-14T09:01:29;4.07;;;2.17;;
40162;SDS011;25881;47.462;19.304;2023-06-14T09:03:56;4.38;;;2.33;;
40162;SDS011;25881;47.462;19.304;2023-06-14T09:06:22;5.97;;;2.92;;
40162;SDS011;25881;47.462;19.304;2023-06-14T09:08:48;6.97;;;2.97;;
40162;SDS011;25881;47.462;19.304;2023-06-14T09:11:14;7.15;;;2.40;;
40162;SDS011;25881;47.462;19.304;2023-06-14T09:13:40;7.10;;;2.58;;
40162;SDS011;25881;47.462;19.304;2023-06-14T09:16:08;3.63;;;2.30;;
40162;SDS011;25881;47.462;19.304;2023-06-14T09:18:52;5.45;;;2.38;;
40162;SDS011;25881;47.462;19.304;2023-06-14T09:21:18;3.75;;;2.00;;
40162;SDS011;25881;47.462;19.304;2023-06-14T09:23:45;4.35;;;2.08;;
40162;SDS011;25881;47.462;19.304;2023-06-14T09:26:11;4.55;;;2.33;;
40162;SDS011;25881;47.462;19.304;2023-06-14T09:28:40;5.90;;;2.83;;
40162;SDS011;25881;47.462;19.304;2023-06-14T09:31:06;3.63;;;2.20;;
40162;SDS011;25881;47.462;19.304;2023-06-14T09:33:33;4.35;;;2.35;;
40162;SDS011;25881;47.462;19.304;2023-06-14T09:35:59;4.38;;;2.40;;
40162;SDS011;25881;47.462;19.304;2023-06-14T09:38:24;4.30;;;1.93;;
40162;SDS011;25881;47.462;19.304;2023-06-14T09:40:49;5.30;;;1.80;;
40162;SDS011;25881;47.462;19.304;2023-06-14T09:43:15;5.32;;;2.33;;
40162;SDS011;25881;47.462;19.304;2023-06-14T09:45:41;5.40;;;2.25;;
40162;SDS011;25881;47.462;19.304;2023-06-14T09:48:11;5.25;;;2.00;;
40162;SDS011;25881;47.462;19.304;2023-06-14T09:50:42;4.13;;;2.30;;
40162;SDS011;25881;47.462;19.304;2023-06-14T09:53:09;5.05;;;2.63;;
40162;SDS011;25881;47.462;19.304;2023-06-14T09:55:36;3.53;;;1.90;;
40162;SDS011;25881;47.462;19.304;2023-06-14T09:58:03;4.43;;;2.53;;
40162;SDS011;25881;47.462;19.304;2023-06-14T10:00:29;3.00;;;2.00;;
40162;SDS011;25881;47.462;19.304;2023-06-14T10:02:58;6.18;;;2.55;;
40162;SDS011;25881;47.462;19.304;2023-06-14T10:05:25;4.18;;;1.98;;
40162;SDS011;25881;47.462;19.304;2023-06-14T10:07:56;3.72;;;2.50;;
40162;SDS011;25881;47.462;19.304;2023-06-14T10:10:24;3.55;;;1.77;;
40162;SDS011;25881;47.462;19.304;2023-06-14T10:12:49;4.50;;;2.30;;
40162;SDS011;25881;47.462;19.304;2023-06-14T10:15:16;5.93;;;2.00;;
40162;SDS011;25881;47.462;19.304;2023-06-14T10:17:47;3.63;;;2.05;;
40162;SDS011;25881;47.462;19.304;2023-06-14T10:20:19;3.00;;;1.80;;
40162;SDS011;25881;47.462;19.304;2023-06-14T10:22:50;3.00;;;1.73;;
40162;SDS011;25881;47.462;19.304;2023-06-14T10:25:25;2.47;;;1.85;;
40162;SDS011;25881;47.462;19.304;2023-06-14T10:27:51;3.45;;;1.90;;
40162;SDS011;25881;47.462;19.304;2023-06-14T10:30:16;4.87;;;1.93;;
40162;SDS011;25881;47.462;19.304;2023-06-14T10:33:03;3.50;;;1.67;;
40162;SDS011;25881;47.462;19.304;2023-06-14T10:35:27;3.60;;;1.92;;
40162;SDS011;25881;47.462;19.304;2023-06-14T10:37:52;3.60;;;2.07;;
40162;SDS011;25881;47.462;19.304;2023-06-14T10:40:30;3.00;;;1.83;;
40162;SDS011;25881;47.462;19.304;2023-06-14T10:42:55;3.38;;;2.00;;
40162;SDS011;25881;47.462;19.304;2023-06-14T10:45:21;4.57;;;2.33;;
40162;SDS011;25881;47.462;19.304;2023-06-14T10:47:46;4.60;;;1.80;;
40162;SDS011;25881;47.462;19.304;2023-06-14T10:50:13;3.73;;;1.67;;
40162;SDS011;25881;47.462;19.304;2023-06-14T10:52:42;4.00;;;2.20;;
40162;SDS011;25881;47.462;19.304;2023-06-14T10:55:09;3.40;;;1.90;;
40162;SDS011;25881;47.462;19.304;2023-06-14T10:57:36;5.35;;;1.77;;
40162;SDS011;25881;47.462;19.304;2023-06-14T11:00:02;4.32;;;1.38;;
40162;SDS011;25881;47.462;19.304;2023-06-14T11:05:25;3.83;;;2.63;;
40162;SDS011;25881;47.462;19.304;2023-06-14T11:13:02;3.35;;;1.70;;
40162;SDS011;25881;47.462;19.304;2023-06-14T11:15:34;4.32;;;2.00;;
40162;SDS011;25881;47.462;19.304;2023-06-14T11:18:01;4.43;;;1.95;;
40162;SDS011;25881;47.462;19.304;2023-06-14T11:20:26;3.90;;;2.05;;
40162;SDS011;25881;47.462;19.304;2023-06-14T11:22:52;5.07;;;2.10;;
40162;SDS011;25881;47.462;19.304;2023-06-14T11:25:18;2.72;;;1.70;;
40162;SDS011;25881;47.462;19.304;2023-06-14T11:27:44;3.07;;;1.83;;
40162;SDS011;25881;47.462;19.304;2023-06-14T11:30:09;2.20;;;1.70;;
40162;SDS011;25881;47.462;19.304;2023-06-14T11:32:35;5.60;;;2.20;;
40162;SDS011;25881;47.462;19.304;2023-06-14T11:35:01;5.28;;;1.70;;
40162;SDS011;25881;47.462;19.304;2023-06-14T11:37:28;5.57;;;1.90;;
40162;SDS011;25881;47.462;19.304;2023-06-14T11:39:58;6.35;;;2.10;;
40162;SDS011;25881;47.462;19.304;2023-06-14T11:42:24;7.13;;;2.13;;
40162;SDS011;25881;47.462;19.304;2023-06-14T11:44:49;5.50;;;2.30;;
40162;SDS011;25881;47.462;19.304;2023-06-14T11:47:15;4.22;;;2.10;;
40162;SDS011;25881;47.462;19.304;2023-06-14T11:49:40;3.47;;;1.80;;
40162;SDS011;25881;47.462;19.304;2023-06-14T11:52:07;3.22;;;1.80;;
40162;SDS011;25881;47.462;19.304;2023-06-14T11:54:32;3.75;;;1.70;;
40162;SDS011;25881;47.462;19.304;2023-06-14T11:56:58;2.97;;;1.63;;
40162;SDS011;25881;47.462;19.304;2023-06-14T11:59:23;3.75;;;1.80;;
40162;SDS011;25881;47.462;19.304;2023-06-14T12:01:49;4.22;;;1.67;;
40162;SDS011;25881;47.462;19.304;2023-06-14T12:04:14;3.70;;;1.90;;
40162;SDS011;25881;47.462;19.304;2023-06-14T12:06:48;4.88;;;2.00;;
40162;SDS011;25881;47.462;19.304;2023-06-14T12:09:13;2.97;;;1.57;;
40162;SDS011;25881;47.462;19.304;2023-06-14T12:11:42;3.50;;;1.42;;
40162;SDS011;25881;47.462;19.304;2023-06-14T12:14:08;3.33;;;1.73;;
40162;SDS011;25881;47.462;19.304;2023-06-14T12:16:34;3.65;;;1.90;;
40162;SDS011;25881;47.462;19.304;2023-06-14T12:19:00;3.13;;;1.52;;
40162;SDS011;25881;47.462;19.304;2023-06-14T12:21:27;3.85;;;2.00;;
40162;SDS011;25881;47.462;19.304;2023-06-14T12:23:53;1.95;;;1.52;;
40162;SDS011;25881;47.462;19.304;2023-06-14T12:26:19;3.63;;;1.50;;
40162;SDS011;25881;47.462;19.304;2023-06-14T12:28:45;3.80;;;1.80;;
40162;SDS011;25881;47.462;19.304;2023-06-14T12:31:11;5.28;;;2.10;;
40162;SDS011;25881;47.462;19.304;2023-06-14T12:33:37;5.80;;;1.70;;
40162;SDS011;25881;47.462;19.304;2023-06-14T12:36:06;2.35;;;1.42;;
40162;SDS011;25881;47.462;19.304;2023-06-14T12:38:32;3.78;;;1.58;;
40162;SDS011;25881;47.462;19.304;2023-06-14T12:40:57;2.53;;;1.40;;
40162;SDS011;25881;47.462;19.304;2023-06-14T12:43:23;3.87;;;1.70;;
40162;SDS011;25881;47.462;19.304;2023-06-14T12:45:48;3.50;;;1.73;;
40162;SDS011;25881;47.462;19.304;2023-06-14T12:48:13;5.80;;;2.03;;
40162;SDS011;25881;47.462;19.304;2023-06-14T12:50:38;3.07;;;1.50;;
40162;SDS011;25881;47.462;19.304;2023-06-14T12:53:04;4.43;;;1.73;;
40162;SDS011;25881;47.462;19.304;2023-06-14T12:55:29;3.47;;;1.70;;
40162;SDS011;25881;47.462;19.304;2023-06-14T12:57:55;7.72;;;1.70;;
40162;SDS011;25881;47.462;19.304;2023-06-14T13:00:20;4.33;;;1.63;;
40162;SDS011;25881;47.462;19.304;2023-06-14T13:02:46;3.83;;;1.83;;
40162;SDS011;25881;47.462;19.304;2023-06-14T13:05:11;3.23;;;2.00;;
40162;SDS011;25881;47.462;19.304;2023-06-14T13:07:37;2.90;;;1.73;;
40162;SDS011;25881;47.462;19.304;2023-06-14T13:10:02;5.07;;;2.40;;
40162;SDS011;25881;47.462;19.304;2023-06-14T13:12:28;6.93;;;2.00;;
40162;SDS011;25881;47.462;19.304;2023-06-14T13:14:53;7.33;;;2.03;;
40162;SDS011;25881;47.462;19.304;2023-06-14T13:17:18;2.33;;;1.40;;
40162;SDS011;25881;47.462;19.304;2023-06-14T13:19:43;3.40;;;2.00;;
40162;SDS011;25881;47.462;19.304;2023-06-14T13:22:09;5.53;;;2.13;;
40162;SDS011;25881;47.462;19.304;2023-06-14T13:24:34;5.75;;;2.30;;
40162;SDS011;25881;47.462;19.304;2023-06-14T13:27:00;5.15;;;2.25;;
40162;SDS011;25881;47.462;19.304;2023-06-14T13:29:25;3.42;;;2.03;;
40162;SDS011;25881;47.462;19.304;2023-06-14T13:31:51;6.43;;;2.50;;
40162;SDS011;25881;47.462;19.304;2023-06-14T13:34:16;5.67;;;2.50;;
40162;SDS011;25881;47.462;19.304;2023-06-14T13:36:41;8.37;;;2.40;;
40162;SDS011;25881;47.462;19.304;2023-06-14T13:39:07;5.47;;;2.17;;
40162;SDS011;25881;47.462;19.304;2023-06-14T13:41:32;3.50;;;2.00;;
40162;SDS011;25881;47.462;19.304;2023-06-14T13:43:59;5.38;;;2.03;;
40162;SDS011;25881;47.462;19.304;2023-06-14T13:46:24;4.53;;;2.15;;
40162;SDS011;25881;47.462;19.304;2023-06-14T13:48:50;3.15;;;2.00;;
40162;SDS011;25881;47.462;19.304;2023-06-14T13:51:15;3.63;;;1.63;;
40162;SDS011;25881;47.462;19.304;2023-06-14T13:53:42;4.40;;;2.00;;
40162;SDS011;25881;47.462;19.304;2023-06-14T13:56:08;5.43;;;2.03;;
40162;SDS011;25881;47.462;19.304;2023-06-14T13:58:33;5.07;;;2.13;;
40162;SDS011;25881;47.462;19.304;2023-06-14T14:00:58;4.00;;;2.20;;
40162;SDS011;25881;47.462;19.304;2023-06-14T14:03:24;2.90;;;1.70;;
40162;SDS011;25881;47.462;19.304;2023-06-14T14:05:50;3.65;;;2.08;;
40162;SDS011;25881;47.462;19.304;2023-06-14T14:08:15;4.27;;;2.27;;
40162;SDS011;25881;47.462;19.304;2023-06-14T14:10:40;5.47;;;2.75;;
40162;SDS011;25881;47.462;19.304;2023-06-14T14:13:06;5.38;;;2.00;;
40162;SDS011;25881;47.462;19.304;2023-06-14T14:15:31;3.67;;;2.13;;
40162;SDS011;25881;47.462;19.304;2023-06-14T14:17:59;2.90;;;1.80;;
40162;SDS011;25881;47.462;19.304;2023-06-14T14:20:24;4.27;;;2.13;;
40162;SDS011;25881;47.462;19.304;2023-06-14T14:22:50;2.83;;;1.83;;
40162;SDS011;25881;47.462;19.304;2023-06-14T14:25:15;3.63;;;1.93;;
40162;SDS011;25881;47.462;19.304;2023-06-14T14:27:40;4.97;;;2.25;;
40162;SDS011;25881;47.462;19.304;2023-06-14T14:30:06;3.37;;;1.87;;
40162;SDS011;25881;47.462;19.304;2023-06-14T14:32:31;3.67;;;2.00;;
40162;SDS011;25881;47.462;19.304;2023-06-14T14:34:56;3.50;;;2.13;;
40162;SDS011;25881;47.462;19.304;2023-06-14T14:37:22;3.33;;;2.17;;
40162;SDS011;25881;47.462;19.304;2023-06-14T14:39:47;4.20;;;2.17;;
40162;SDS011;25881;47.462;19.304;2023-06-14T14:42:12;3.57;;;1.43;;
40162;SDS011;25881;47.462;19.304;2023-06-14T14:44:38;2.25;;;1.52;;